createdAt,value
2019-04-03T00:03:17.191Z,96525.47
2019-04-03T00:08:20.492Z,96496.56
2019-04-03T00:13:23.792Z,96496.56
2019-04-03T00:18:27.141Z,96518.89
2019-04-03T00:23:30.386Z,96512.72
2019-04-03T00:28:33.680Z,96507.52
2019-04-03T00:33:36.975Z,96507.36
2019-04-03T00:38:41.309Z,96504.17
2019-04-03T00:43:44.622Z,96489.09
2019-04-03T00:48:47.920Z,96497.17
2019-04-03T00:53:51.220Z,96493.42
2019-04-03T00:58:55.935Z,96489.28
2019-04-03T01:03:59.255Z,96494.86
2019-04-03T01:09:02.631Z,96493.27
2019-04-03T01:14:06.202Z,96490.66
2019-04-03T01:19:09.677Z,96490.21
2019-04-03T01:24:12.976Z,96492.97
2019-04-03T01:29:16.275Z,96498.85
2019-04-03T01:34:19.651Z,96495.74
2019-04-03T01:39:22.942Z,96489.05
2019-04-03T01:44:26.244Z,96475.97
2019-04-03T01:49:29.641Z,96473.81
2019-04-03T01:54:33.743Z,96469.52
2019-04-03T01:59:37.946Z,96479.07
2019-04-03T02:04:42.673Z,96490.37
2019-04-03T02:09:47.017Z,96483.92
2019-04-03T02:14:51.534Z,96482.77
2019-04-03T02:19:56.395Z,96484.81
2019-04-03T02:25:01.879Z,96472.36
2019-04-03T02:30:12.343Z,96482.23
2019-04-03T02:35:13.189Z,96484.31
2019-04-03T02:40:16.753Z,96474.25
2019-04-03T02:45:22.750Z,96479.98
2019-04-03T02:50:25.511Z,96476.23
2019-04-03T02:55:28.980Z,96476.05
2019-04-03T03:00:33.723Z,96460.58
2019-04-03T03:05:37.138Z,96458.30
2019-04-03T03:10:40.506Z,96450.20
2019-04-03T03:15:44.909Z,96451.11
2019-04-03T03:20:49.346Z,96452.62
2019-04-03T03:25:52.643Z,96446.14
2019-04-03T03:31:02.690Z,96434.63
2019-04-03T03:36:02.900Z,96436.67
2019-04-03T03:41:06.839Z,96440.39
2019-04-03T03:46:11.207Z,96440.50
2019-04-03T03:51:15.463Z,96439.10
2019-04-03T03:56:19.495Z,96434.55
2019-04-03T04:01:23.213Z,96429.34
2019-04-03T04:06:29.391Z,96424.08
2019-04-03T04:11:32.495Z,96418.58
2019-04-03T04:16:37.255Z,96421.75
2019-04-03T04:21:44.013Z,96418.48
2019-04-03T04:26:46.119Z,96418.93
2019-04-03T04:31:49.413Z,96420.53
2019-04-03T04:36:55.418Z,96412.07
2019-04-03T04:41:58.378Z,96426.48
2019-04-03T04:47:01.683Z,96446.82
2019-04-03T04:52:05.061Z,96442.08
2019-04-03T04:57:09.555Z,96429.90
2019-04-03T05:02:12.812Z,96431.09
2019-04-03T05:07:17.431Z,96431.45
2019-04-03T05:12:21.053Z,96446.31
2019-04-03T05:17:24.794Z,96445.36
2019-04-03T05:22:29.452Z,96433.80
2019-04-03T05:27:34.446Z,96434.03
2019-04-03T05:32:40.729Z,96430.16
2019-04-03T05:37:43.625Z,96430.25
2019-04-03T05:42:47.045Z,96426.78
2019-04-03T05:47:50.346Z,96428.27
2019-04-03T05:52:53.773Z,96426.17
2019-04-03T05:57:57.058Z,96424.56
2019-04-03T06:03:00.380Z,96414.74
2019-04-03T06:08:03.884Z,96411.70
2019-04-03T06:13:07.186Z,96426.64
2019-04-03T06:18:10.526Z,96417.01
2019-04-03T06:23:13.792Z,96422.09
2019-04-03T06:28:17.087Z,96404.49
2019-04-03T06:33:20.384Z,96403.63
2019-04-03T06:38:24.535Z,96404.79
2019-04-03T06:43:30.183Z,96392.41
2019-04-03T06:48:34.640Z,96384.58
2019-04-03T06:53:38.765Z,96388.27
2019-04-03T06:58:44.400Z,96384.02
2019-04-03T07:03:47.072Z,96372.59
2019-04-03T07:08:50.375Z,96373.30
2019-04-03T07:13:54.451Z,96363.44
2019-04-03T07:18:58.061Z,96369.42
2019-04-03T07:24:01.422Z,96368.01
2019-04-03T07:29:04.697Z,96367.84
2019-04-03T07:34:08.192Z,96375.00
2019-04-03T07:39:11.477Z,96373.18
2019-04-03T07:44:14.763Z,96371.77
2019-04-03T07:49:18.402Z,96376.30
2019-04-03T07:54:22.612Z,96368.48
2019-04-03T07:59:26.515Z,96363.48
2019-04-03T08:04:29.960Z,96372.27
2019-04-03T08:09:33.266Z,96372.50
2019-04-03T08:14:36.550Z,96376.05
2019-04-03T08:19:39.870Z,96370.50
2019-04-03T08:24:43.184Z,96372.45
2019-04-03T08:29:46.559Z,96370.20
2019-04-03T08:34:49.866Z,96362.47
2019-04-03T08:39:53.293Z,96376.38
2019-04-03T08:44:59.571Z,96372.44
2019-04-03T08:50:02.869Z,96357.19
2019-04-03T08:55:08.021Z,96361.72
2019-04-03T09:00:12.150Z,96353.35
2019-04-03T09:05:17.035Z,96347.52
2019-04-03T09:10:20.545Z,96343.15
2019-04-03T09:15:23.905Z,96339.87
2019-04-03T09:20:27.175Z,96336.58
2019-04-03T09:25:31.622Z,96329.31
2019-04-03T09:30:35.784Z,96331.52
2019-04-03T09:35:42.285Z,96325.35
2019-04-03T09:40:47.246Z,96318.75
2019-04-03T09:45:49.729Z,96315.52
2019-04-03T09:50:53.173Z,96308.06
2019-04-03T09:55:56.406Z,96301.38
2019-04-03T10:00:59.714Z,96290.86
2019-04-03T10:06:03.015Z,96278.00
2019-04-03T10:11:06.310Z,96271.21
2019-04-03T10:16:09.612Z,96266.41
2019-04-03T10:21:12.913Z,96247.61
2019-04-03T10:26:16.555Z,96240.39
2019-04-03T10:31:19.941Z,96242.21
2019-04-03T10:36:23.250Z,96229.70
2019-04-03T10:41:28.762Z,96221.87
2019-04-03T10:46:31.960Z,96211.53
2019-04-03T10:51:35.268Z,96204.72
2019-04-03T10:56:38.800Z,96193.09
2019-04-03T11:01:42.141Z,96183.47
2019-04-03T11:33:25.989Z,96138.92
2019-04-03T11:38:29.956Z,96130.90
2019-04-03T11:43:33.407Z,96117.94
2019-04-03T11:48:36.828Z,96117.80
2019-04-03T11:53:40.135Z,96102.39
2019-04-03T11:58:43.395Z,96091.89
2019-04-03T12:03:46.689Z,96080.02
2019-04-03T12:08:50.326Z,96072.38
2019-04-03T12:13:53.969Z,96063.72
2019-04-03T12:18:57.458Z,96057.77
2019-04-03T12:24:00.760Z,96036.97
2019-04-03T12:29:06.908Z,96038.55
2019-04-03T12:34:09.098Z,96026.42
2019-04-03T12:39:13.529Z,96017.89
2019-04-03T12:44:16.831Z,96012.25
2019-04-03T12:49:22.425Z,96011.25
2019-04-03T12:54:25.432Z,96012.49
2019-04-03T12:59:29.417Z,96001.11
2019-04-03T13:04:32.932Z,95995.21
2019-04-03T13:09:38.002Z,95993.27
2019-04-03T13:14:41.439Z,95981.19
2019-04-03T13:19:45.260Z,95985.70
2019-04-03T13:24:49.687Z,95970.73
2019-04-03T13:29:52.926Z,95967.92
2019-04-03T13:34:56.231Z,95946.72
2019-04-03T13:40:00.514Z,95946.72
2019-04-03T13:45:08.159Z,95954.23
2019-04-03T13:50:11.863Z,95953.55
2019-04-03T13:55:15.562Z,95945.76
2019-04-03T14:00:22.560Z,95935.92
2019-04-03T14:05:27.245Z,95930.03
2019-04-03T14:10:29.184Z,95928.90
2019-04-03T14:15:32.753Z,95916.02
2019-04-03T14:20:36.546Z,95903.00
2019-04-03T14:25:39.889Z,95906.83
2019-04-03T14:30:44.994Z,95892.64
2019-04-03T14:35:52.999Z,95890.33
2019-04-03T14:40:53.380Z,95877.50
2019-04-03T14:45:56.708Z,95874.91
2019-04-03T14:51:00.039Z,95865.55
2019-04-03T14:56:03.365Z,95869.05
2019-04-03T15:01:06.738Z,95862.78
2019-04-03T15:06:10.393Z,95864.73
2019-04-03T15:11:13.656Z,95854.36
2019-04-03T15:16:17.419Z,95861.31
2019-04-03T15:21:23.754Z,95853.98
2019-04-03T15:26:25.965Z,95843.90
2019-04-03T15:31:29.288Z,95831.00
2019-04-03T15:36:34.930Z,95826.96
2019-04-03T15:41:38.032Z,95824.77
2019-04-03T15:46:41.634Z,95813.70
2019-04-03T15:51:44.967Z,95806.84
2019-04-03T15:56:48.689Z,95801.07
2019-04-03T16:01:51.991Z,95791.97
2019-04-03T16:06:55.508Z,95792.38
2019-04-03T16:12:00.472Z,95785.58
2019-04-03T16:17:03.874Z,95781.22
2019-04-03T16:22:07.197Z,95781.22
2019-04-03T16:27:10.530Z,95775.28
2019-04-03T16:32:13.848Z,95776.63
2019-04-03T16:37:20.492Z,95768.80
2019-04-03T16:42:22.736Z,95772.70
2019-04-03T16:47:27.598Z,95766.20
2019-04-03T16:52:31.308Z,95763.75
2019-04-03T16:57:34.773Z,95759.39
2019-04-03T17:02:38.101Z,95752.58
2019-04-03T17:07:41.898Z,95746.00
2019-04-03T17:12:46.196Z,95739.44
2019-04-03T17:17:50.136Z,95743.09
2019-04-03T17:22:53.535Z,95738.95
2019-04-03T17:27:58.929Z,95734.09
2019-04-03T17:33:02.822Z,95727.55
2019-04-03T17:38:06.754Z,95714.28
2019-04-03T17:43:11.292Z,95715.13
2019-04-03T17:48:16.153Z,95714.55
2019-04-03T17:53:19.891Z,95715.59
2019-04-03T17:58:24.237Z,95715.61
2019-04-03T18:03:27.562Z,95717.08
2019-04-03T18:08:32.499Z,95714.28
2019-04-03T18:13:35.945Z,95715.12
2019-04-03T18:18:39.277Z,95719.23
2019-04-03T18:23:42.615Z,95712.78
2019-04-03T18:28:45.939Z,95709.84
2019-04-03T18:33:49.346Z,95717.37
2019-04-03T18:38:53.230Z,95710.63
2019-04-03T18:43:56.569Z,95717.53
2019-04-03T18:49:01.630Z,95714.78
2019-04-03T18:54:05.126Z,95716.12
2019-04-03T18:59:08.774Z,95717.05
2019-04-03T19:04:12.263Z,95719.84
2019-04-03T19:09:21.046Z,95725.55
2019-04-03T19:14:27.407Z,95723.86
2019-04-03T19:19:27.957Z,95721.16
2019-04-03T19:24:31.336Z,95720.89
2019-04-03T19:29:35.883Z,95727.14
2019-04-03T19:34:39.829Z,95740.48
2019-04-03T19:39:43.198Z,95736.01
2019-04-03T19:44:47.160Z,95730.48
2019-04-03T19:49:51.770Z,95732.90
2019-04-03T19:54:55.100Z,95737.97
2019-04-03T19:59:58.427Z,95747.02
2019-04-03T20:05:01.783Z,95744.27
2019-04-03T20:10:07.996Z,95745.05
2019-04-03T20:15:11.650Z,95746.03
2019-04-03T20:20:15.018Z,95756.52
2019-04-03T20:25:18.395Z,95752.67
2019-04-03T20:30:21.696Z,95770.63
2019-04-03T20:35:25.212Z,95776.05
2019-04-03T20:40:31.719Z,95767.97
2019-04-03T20:45:33.746Z,95764.48
2019-04-03T20:50:38.152Z,95772.05
2019-04-03T20:55:42.040Z,95766.83
2019-04-03T21:00:47.081Z,95768.56
2019-04-03T21:05:50.375Z,95768.38
2019-04-03T21:10:53.667Z,95770.21
2019-04-03T21:15:57.873Z,95779.73
2019-04-03T21:21:01.637Z,95830.89
2019-04-03T21:26:07.345Z,95820.88
2019-04-03T21:31:10.186Z,95835.76
2019-04-03T21:36:13.497Z,95854.73
2019-04-03T21:41:20.488Z,95855.13
2019-04-03T21:46:22.459Z,95858.23
2019-04-03T21:51:25.712Z,95861.22
2019-04-03T21:56:29.049Z,95882.41
2019-04-03T22:01:32.459Z,95889.22
2019-04-03T22:06:35.750Z,95894.13
2019-04-03T22:11:39.190Z,95914.52
2019-04-03T22:16:42.488Z,95924.59
2019-04-03T22:21:45.782Z,95926.77
2019-04-03T22:26:49.080Z,95933.81
2019-04-03T22:31:54.414Z,95932.34
2019-04-03T22:36:57.398Z,95943.76
2019-04-03T22:42:00.704Z,95946.87
2019-04-03T22:47:03.998Z,95953.85
2019-04-03T22:52:08.891Z,95960.62
2019-04-03T22:57:12.302Z,95969.50
2019-04-03T23:02:15.605Z,95971.56
2019-04-03T23:07:20.867Z,95986.39
2019-04-03T23:17:32.486Z,95987.03
2019-04-03T23:22:36.741Z,95990.95
2019-04-03T23:27:40.039Z,95983.13
2019-04-03T23:32:45.873Z,95977.71
2019-04-03T23:37:48.357Z,95959.74
2019-04-03T23:42:51.655Z,95959.68
2019-04-03T23:47:54.924Z,95954.07
2019-04-03T23:53:00.721Z,95942.66
2019-04-03T23:58:03.241Z,95934.65
